createdAt,value
2016-07-15T00:00:40.634Z,0
2016-07-15T00:01:40.621Z,0
2016-07-15T00:02:39.892Z,0
2016-07-15T00:03:39.876Z,0
2016-07-15T00:04:40.571Z,0
2016-07-15T00:05:39.832Z,0
2016-07-15T00:06:40.561Z,0
2016-07-15T00:07:40.537Z,0
2016-07-15T00:08:40.530Z,0
2016-07-15T00:09:39.801Z,0
2016-07-15T00:10:40.492Z,0
2016-07-15T00:11:39.759Z,0
2016-07-15T00:12:40.448Z,0
2016-07-15T00:13:40.440Z,0
2016-07-15T00:14:40.420Z,0
2016-07-15T00:15:39.692Z,0
2016-07-15T00:16:40.385Z,0
2016-07-15T00:17:39.659Z,0
2016-07-15T00:18:40.360Z,0
2016-07-15T00:19:40.349Z,0
2016-07-15T00:20:39.626Z,0
2016-07-15T00:21:39.590Z,0
2016-07-15T00:22:40.297Z,0
2016-07-15T00:23:40.287Z,0
2016-07-15T00:24:40.255Z,0
2016-07-15T00:25:40.242Z,0
2016-07-15T00:26:40.242Z,0
2016-07-15T00:27:40.243Z,0
2016-07-15T00:28:40.189Z,0
2016-07-15T00:29:40.190Z,0
2016-07-15T00:30:38.763Z,0
2016-07-15T00:31:40.171Z,0
2016-07-15T00:32:39.426Z,0
2016-07-15T00:33:39.412Z,0
2016-07-15T00:34:40.154Z,0
2016-07-15T00:35:39.366Z,0
2016-07-15T00:36:40.065Z,0
2016-07-15T00:37:39.339Z,0
2016-07-15T00:38:40.032Z,0
2016-07-15T00:39:40.018Z,0
2016-07-15T00:40:40.021Z,0
2016-07-15T00:41:40.011Z,0
2016-07-15T00:42:39.982Z,0
2016-07-15T00:43:39.250Z,0
2016-07-15T00:44:39.966Z,0
2016-07-15T00:45:39.942Z,0
2016-07-15T00:46:39.202Z,0
2016-07-15T00:47:39.262Z,0
2016-07-15T00:48:39.956Z,0
2016-07-15T00:49:39.878Z,0
2016-07-15T00:50:39.226Z,0
2016-07-15T00:51:39.847Z,0
2016-07-15T00:52:39.842Z,0
2016-07-15T00:53:39.802Z,0
2016-07-15T00:54:39.088Z,0
2016-07-15T00:55:39.772Z,0
2016-07-15T00:56:39.792Z,0
2016-07-15T00:57:39.031Z,0
2016-07-15T00:58:39.729Z,0
2016-07-15T00:59:39.718Z,0
2016-07-15T01:00:38.985Z,0
2016-07-15T01:01:39.679Z,0
2016-07-15T01:02:39.672Z,0
2016-07-15T01:03:38.925Z,0
2016-07-15T01:04:39.627Z,0
2016-07-15T01:05:38.910Z,0
2016-07-15T01:06:39.600Z,0
2016-07-15T01:07:39.590Z,0
2016-07-15T01:08:38.891Z,0
2016-07-15T01:09:38.820Z,0
2016-07-15T01:10:39.551Z,0
2016-07-15T01:11:38.090Z,0
2016-07-15T01:12:38.791Z,0
2016-07-15T01:13:39.484Z,0
2016-07-15T01:14:38.741Z,0
2016-07-15T01:15:39.448Z,0
2016-07-15T01:16:39.466Z,0
2016-07-15T01:17:39.425Z,0
2016-07-15T01:18:39.420Z,0
2016-07-15T01:19:38.661Z,0
2016-07-15T01:20:39.374Z,0
2016-07-15T01:21:37.917Z,0
2016-07-15T01:22:39.343Z,0
2016-07-15T01:23:38.608Z,0
2016-07-15T01:24:39.532Z,0
2016-07-15T01:25:37.918Z,0
2016-07-15T01:26:39.281Z,0
2016-07-15T01:27:39.248Z,0
2016-07-15T01:28:39.442Z,0
2016-07-15T01:29:39.245Z,0
2016-07-15T01:30:39.218Z,0
2016-07-15T01:31:38.475Z,0
2016-07-15T01:32:37.746Z,0
2016-07-15T01:33:39.162Z,0
2016-07-15T01:34:39.167Z,0
2016-07-15T01:35:39.127Z,0
2016-07-15T01:36:37.687Z,0
2016-07-15T01:37:39.087Z,0
2016-07-15T01:38:39.078Z,0
2016-07-15T01:39:39.071Z,0
2016-07-15T01:40:38.350Z,0
2016-07-15T01:41:39.060Z,0
2016-07-15T01:42:39.060Z,0
2016-07-15T01:43:38.290Z,0
2016-07-15T01:44:39.042Z,0
2016-07-15T01:45:38.247Z,0
2016-07-15T01:46:38.949Z,0
2016-07-15T01:47:38.219Z,0
2016-07-15T01:48:38.931Z,0
2016-07-15T01:49:38.211Z,0
2016-07-15T01:50:38.181Z,0
2016-07-15T01:51:38.878Z,0
2016-07-15T01:52:38.150Z,0
2016-07-15T01:53:38.138Z,0
2016-07-15T01:54:38.810Z,0
2016-07-15T01:55:38.109Z,0
2016-07-15T01:56:38.788Z,0
2016-07-15T01:57:38.201Z,0
2016-07-15T01:58:38.788Z,0
2016-07-15T01:59:38.746Z,0
2016-07-15T02:00:38.781Z,0
2016-07-15T02:01:38.708Z,0
2016-07-15T02:02:37.978Z,0
2016-07-15T02:03:38.681Z,0
2016-07-15T02:04:37.945Z,0
2016-07-15T02:05:38.642Z,0
2016-07-15T02:06:38.637Z,0
2016-07-15T02:07:38.619Z,0
2016-07-15T02:08:37.891Z,0
2016-07-15T02:09:38.578Z,0
2016-07-15T02:10:37.861Z,0
2016-07-15T02:11:38.552Z,0
2016-07-15T02:12:38.533Z,0
2016-07-15T02:13:38.515Z,0
2016-07-15T02:14:38.609Z,0
2016-07-15T02:15:38.551Z,0
2016-07-15T02:16:38.559Z,0
2016-07-15T02:17:38.498Z,0
2016-07-15T02:18:38.484Z,0
2016-07-15T02:19:38.469Z,0
2016-07-15T02:20:38.491Z,0
2016-07-15T02:21:38.441Z,0
2016-07-15T02:22:38.457Z,0
2016-07-15T02:23:38.410Z,0
2016-07-15T02:24:37.679Z,0
2016-07-15T02:25:38.378Z,0
2016-07-15T02:26:38.369Z,0
2016-07-15T02:27:38.351Z,0
2016-07-15T02:28:37.619Z,0
2016-07-15T02:29:37.641Z,0
2016-07-15T02:30:38.323Z,0
2016-07-15T02:31:36.841Z,0
2016-07-15T02:32:38.277Z,0
2016-07-15T02:33:38.248Z,0
2016-07-15T02:34:38.251Z,0
2016-07-15T02:35:37.500Z,0
2016-07-15T02:36:38.208Z,0
2016-07-15T02:37:37.502Z,0
2016-07-15T02:38:38.171Z,0
2016-07-15T02:39:38.153Z,0
2016-07-15T02:40:38.148Z,0
2016-07-15T02:41:38.122Z,0
2016-07-15T02:42:38.109Z,0
2016-07-15T02:43:38.111Z,0
2016-07-15T02:44:38.103Z,0
2016-07-15T02:45:38.054Z,0
2016-07-15T02:46:37.318Z,0
2016-07-15T02:47:38.040Z,0
2016-07-15T02:48:38.018Z,0
2016-07-15T02:49:38.011Z,0
2016-07-15T02:50:38.000Z,0
2016-07-15T02:51:37.951Z,0
2016-07-15T02:52:37.950Z,0
2016-07-15T02:53:37.965Z,0
2016-07-15T02:54:37.200Z,0
2016-07-15T02:55:37.249Z,0
2016-07-15T02:56:37.178Z,0
2016-07-15T02:57:37.160Z,0
2016-07-15T02:58:37.862Z,0
2016-07-15T02:59:37.956Z,0
2016-07-15T03:00:37.889Z,0
2016-07-15T03:01:37.883Z,0
2016-07-15T03:02:36.408Z,0
2016-07-15T03:03:37.852Z,0
2016-07-15T03:04:37.809Z,4
2016-07-15T03:05:37.147Z,4
2016-07-15T03:06:37.789Z,4
2016-07-15T03:07:37.769Z,0
2016-07-15T03:08:37.780Z,0
2016-07-15T03:09:38.009Z,4
2016-07-15T03:10:37.745Z,4
2016-07-15T03:11:37.729Z,4
2016-07-15T03:12:36.976Z,0
2016-07-15T03:13:37.699Z,4
2016-07-15T03:14:37.670Z,4
2016-07-15T03:15:36.999Z,4
2016-07-15T03:16:36.920Z,4
2016-07-15T03:17:36.907Z,4
2016-07-15T03:18:37.599Z,8
2016-07-15T03:19:36.859Z,4
2016-07-15T03:20:36.847Z,8
2016-07-15T03:21:36.839Z,8
2016-07-15T03:22:37.550Z,8
2016-07-15T03:23:37.527Z,8
2016-07-15T03:24:37.520Z,12
2016-07-15T03:25:36.785Z,12
2016-07-15T03:26:37.466Z,16
2016-07-15T03:27:37.453Z,20
2016-07-15T03:28:37.457Z,20
2016-07-15T03:29:36.717Z,24
2016-07-15T03:30:36.679Z,28
2016-07-15T03:31:37.406Z,28
2016-07-15T03:32:37.393Z,28
2016-07-15T03:33:36.637Z,32
2016-07-15T03:34:37.348Z,36
2016-07-15T03:35:37.440Z,40
2016-07-15T03:36:37.334Z,40
2016-07-15T03:37:37.309Z,40
2016-07-15T03:38:36.467Z,44
2016-07-15T03:39:37.170Z,40
2016-07-15T03:40:36.426Z,48
2016-07-15T03:41:37.167Z,48
2016-07-15T03:42:36.394Z,56
2016-07-15T03:43:37.116Z,64
2016-07-15T03:44:37.107Z,64
2016-07-15T03:45:37.077Z,64
2016-07-15T03:46:37.056Z,72
2016-07-15T03:47:36.316Z,76
2016-07-15T03:48:37.046Z,80
2016-07-15T03:49:37.009Z,84
2016-07-15T03:50:36.279Z,88
2016-07-15T03:51:37.041Z,88
2016-07-15T03:52:36.979Z,88
2016-07-15T03:53:36.223Z,88
2016-07-15T03:54:36.949Z,92
2016-07-15T03:55:36.225Z,100
2016-07-15T03:56:36.927Z,112
2016-07-15T03:57:36.939Z,120
2016-07-15T03:58:36.876Z,132
2016-07-15T03:59:36.869Z,140
2016-07-15T04:00:36.147Z,144
2016-07-15T04:01:36.834Z,144
2016-07-15T04:02:36.818Z,144
2016-07-15T04:03:36.808Z,144
2016-07-15T04:04:36.808Z,148
2016-07-15T04:05:36.058Z,148
2016-07-15T04:06:36.735Z,156
2016-07-15T04:07:36.020Z,184
2016-07-15T04:08:35.995Z,208
2016-07-15T04:09:36.808Z,220
2016-07-15T04:10:35.978Z,232
2016-07-15T04:11:36.672Z,240
2016-07-15T04:12:35.938Z,248
2016-07-15T04:13:35.207Z,252
2016-07-15T04:14:35.908Z,248
2016-07-15T04:15:36.621Z,252
2016-07-15T04:16:36.585Z,240
2016-07-15T04:17:36.581Z,228
2016-07-15T04:18:36.565Z,216
2016-07-15T04:19:35.837Z,212
2016-07-15T04:20:35.807Z,212
2016-07-15T04:21:36.521Z,224
2016-07-15T04:22:35.784Z,228
2016-07-15T04:23:36.552Z,232
2016-07-15T04:24:35.754Z,236
2016-07-15T04:25:36.464Z,244
2016-07-15T04:26:36.441Z,248
2016-07-15T04:27:35.715Z,256
2016-07-15T04:28:36.414Z,252
2016-07-15T04:29:36.395Z,252
2016-07-15T04:30:35.657Z,252
2016-07-15T04:31:36.358Z,256
2016-07-15T04:32:36.333Z,268
2016-07-15T04:33:36.327Z,288
2016-07-15T04:34:35.604Z,308
2016-07-15T04:35:36.291Z,324
2016-07-15T04:36:35.578Z,352
2016-07-15T04:37:36.284Z,368
2016-07-15T04:38:36.242Z,384
2016-07-15T04:39:36.237Z,396
2016-07-15T04:40:35.518Z,400
2016-07-15T04:41:36.210Z,408
2016-07-15T04:42:35.480Z,416
2016-07-15T04:43:35.454Z,436
2016-07-15T04:44:34.729Z,448
2016-07-15T04:45:35.429Z,464
2016-07-15T04:46:35.415Z,492
2016-07-15T04:47:35.415Z,532
2016-07-15T04:48:36.102Z,576
2016-07-15T04:49:36.095Z,612
2016-07-15T04:50:35.409Z,652
2016-07-15T04:51:35.335Z,684
2016-07-15T04:52:36.032Z,700
2016-07-15T04:53:33.932Z,704
2016-07-15T04:54:35.296Z,712
2016-07-15T04:55:35.261Z,724
2016-07-15T04:56:35.978Z,736
2016-07-15T04:57:35.971Z,744
2016-07-15T04:58:35.945Z,748
2016-07-15T04:59:35.979Z,748
2016-07-15T05:00:35.907Z,752
2016-07-15T05:01:35.901Z,768
2016-07-15T05:02:35.875Z,792
2016-07-15T05:03:35.890Z,828
2016-07-15T05:04:35.128Z,868
2016-07-15T05:05:35.843Z,884
2016-07-15T05:06:35.901Z,904
2016-07-15T05:07:35.817Z,928
2016-07-15T05:08:35.106Z,964
2016-07-15T05:09:35.060Z,1000
2016-07-15T05:10:34.321Z,1040
2016-07-15T05:11:35.750Z,1064
2016-07-15T05:12:35.045Z,1056
2016-07-15T05:13:35.731Z,1052
2016-07-15T05:14:35.757Z,1072
2016-07-15T05:15:33.544Z,1096
2016-07-15T05:16:35.699Z,1136
2016-07-15T05:17:35.651Z,1184
2016-07-15T05:18:35.654Z,1212
2016-07-15T05:19:35.872Z,1216
2016-07-15T05:20:35.619Z,1228
2016-07-15T05:21:34.888Z,1252
2016-07-15T05:22:35.594Z,1276
2016-07-15T05:23:34.849Z,1308
2016-07-15T05:24:35.622Z,1360
2016-07-15T05:25:34.819Z,1404
2016-07-15T05:26:35.600Z,1468
2016-07-15T05:27:35.503Z,1548
2016-07-15T05:28:35.490Z,1612
2016-07-15T05:29:33.320Z,1644
2016-07-15T05:30:35.462Z,1664
2016-07-15T05:31:35.445Z,1724
2016-07-15T05:32:35.431Z,1796
2016-07-15T05:33:34.690Z,1816
2016-07-15T05:34:35.410Z,1868
2016-07-15T05:35:35.387Z,1932
2016-07-15T05:36:35.380Z,1984
2016-07-15T05:37:33.934Z,2008
2016-07-15T05:38:35.359Z,2004
2016-07-15T05:39:34.605Z,2052
2016-07-15T05:40:35.320Z,2136
2016-07-15T05:41:35.296Z,2232
2016-07-15T05:42:33.839Z,2328
2016-07-15T05:43:35.271Z,2432
2016-07-15T05:44:34.542Z,2500
2016-07-15T05:45:34.588Z,2568
2016-07-15T05:46:35.246Z,2584
2016-07-15T05:47:35.197Z,2580
2016-07-15T05:48:35.248Z,2672
2016-07-15T05:49:33.739Z,2784
2016-07-15T05:50:35.221Z,2800
2016-07-15T05:51:35.145Z,2828
2016-07-15T05:52:35.136Z,2864
2016-07-15T05:53:35.119Z,2936
2016-07-15T05:54:35.099Z,2988
2016-07-15T05:55:34.353Z,3072
2016-07-15T05:56:34.371Z,3192
2016-07-15T05:57:35.036Z,3312
2016-07-15T05:58:35.039Z,3408
2016-07-15T05:59:34.311Z,3496
2016-07-15T06:00:34.297Z,3596
2016-07-15T06:01:35.007Z,3728
2016-07-15T06:02:34.990Z,3836
2016-07-15T06:03:34.969Z,3856
2016-07-15T06:04:34.250Z,3440
2016-07-15T06:05:34.202Z,3136
2016-07-15T06:06:34.257Z,2980
2016-07-15T06:07:34.197Z,2852
2016-07-15T06:08:34.177Z,2636
2016-07-15T06:09:33.557Z,2524
2016-07-15T06:10:34.866Z,2804
2016-07-15T06:11:34.856Z,3068
2016-07-15T06:12:33.407Z,3308
2016-07-15T06:13:33.379Z,3456
2016-07-15T06:14:34.856Z,3764
2016-07-15T06:15:34.080Z,3940
2016-07-15T06:16:34.059Z,2744
2016-07-15T06:17:34.040Z,1828
2016-07-15T06:18:34.743Z,1456
2016-07-15T06:19:34.727Z,1352
2016-07-15T06:20:34.720Z,1368
2016-07-15T06:21:33.990Z,1396
2016-07-15T06:22:33.978Z,1376
2016-07-15T06:23:33.959Z,1356
2016-07-15T06:24:34.671Z,1224
2016-07-15T06:25:33.211Z,1188
2016-07-15T06:26:33.198Z,1252
2016-07-15T06:27:34.625Z,1984
2016-07-15T06:28:33.880Z,3188
2016-07-15T06:29:34.583Z,4300
2016-07-15T06:30:34.600Z,4692
2016-07-15T06:31:34.555Z,4992
2016-07-15T06:32:34.545Z,4424
2016-07-15T06:33:33.813Z,5004
2016-07-15T06:34:33.080Z,5576
2016-07-15T06:35:33.841Z,5384
2016-07-15T06:36:34.487Z,5380
2016-07-15T06:37:34.470Z,6352
2016-07-15T06:38:33.750Z,6868
2016-07-15T06:39:36.132Z,8016
2016-07-15T06:40:34.450Z,7972
2016-07-15T06:41:33.784Z,7280
2016-07-15T06:42:34.401Z,5964
2016-07-15T06:43:33.780Z,5692
2016-07-15T06:44:33.711Z,5228
2016-07-15T06:45:32.230Z,4472
2016-07-15T06:46:33.627Z,4080
2016-07-15T06:47:34.334Z,4320
2016-07-15T06:48:34.335Z,4428
2016-07-15T06:49:34.304Z,4440
2016-07-15T06:50:33.578Z,4616
2016-07-15T06:51:34.279Z,4740
2016-07-15T06:52:34.267Z,4748
2016-07-15T06:53:34.260Z,4996
2016-07-15T06:54:32.871Z,5396
2016-07-15T06:55:32.786Z,6296
2016-07-15T06:56:33.490Z,6784
2016-07-15T06:57:34.180Z,6976
2016-07-15T06:58:34.188Z,6372
2016-07-15T06:59:34.294Z,6080
2016-07-15T07:00:33.443Z,5224
2016-07-15T07:01:33.426Z,6508
2016-07-15T07:02:34.139Z,6956
2016-07-15T07:03:34.258Z,7552
2016-07-15T07:04:33.388Z,7104
2016-07-15T07:05:33.410Z,6532
2016-07-15T07:06:33.374Z,6200
2016-07-15T07:07:32.639Z,6528
2016-07-15T07:08:33.348Z,5988
2016-07-15T07:09:31.967Z,5488
2016-07-15T07:10:34.020Z,5608
2016-07-15T07:11:32.587Z,5416
2016-07-15T07:12:32.557Z,5604
2016-07-15T07:13:33.252Z,6312
2016-07-15T07:14:33.980Z,6940
2016-07-15T07:15:34.011Z,7468
2016-07-15T07:16:33.235Z,7652
2016-07-15T07:17:33.220Z,8576
2016-07-15T07:18:33.920Z,8672
2016-07-15T07:19:33.895Z,7544
2016-07-15T07:20:33.903Z,7040
2016-07-15T07:21:33.240Z,6952
2016-07-15T07:22:33.855Z,7168
2016-07-15T07:23:33.875Z,7720
2016-07-15T07:24:33.129Z,6644
2016-07-15T07:25:31.665Z,6564
2016-07-15T07:26:33.801Z,7124
2016-07-15T07:27:33.807Z,5864
2016-07-15T07:28:33.059Z,4692
2016-07-15T07:29:33.777Z,4536
2016-07-15T07:30:33.048Z,4732
2016-07-15T07:31:32.319Z,5168
2016-07-15T07:32:33.737Z,6564
2016-07-15T07:33:33.734Z,7136
2016-07-15T07:34:33.061Z,7144
2016-07-15T07:35:33.715Z,5976
2016-07-15T07:36:33.702Z,5608
2016-07-15T07:37:32.258Z,6092
2016-07-15T07:38:32.239Z,6856
2016-07-15T07:39:33.003Z,7160
2016-07-15T07:40:32.971Z,7200
2016-07-15T07:41:33.629Z,6868
2016-07-15T07:42:33.616Z,6684
2016-07-15T07:43:32.876Z,7148
2016-07-15T07:44:32.170Z,7412
2016-07-15T07:45:33.583Z,8180
2016-07-15T07:46:32.198Z,8692
2016-07-15T07:47:33.554Z,8280
2016-07-15T07:48:32.115Z,7924
2016-07-15T07:49:32.797Z,7892
2016-07-15T07:50:32.797Z,7584
2016-07-15T07:51:32.795Z,7316
2016-07-15T07:52:33.501Z,6048
2016-07-15T07:53:32.757Z,6296
2016-07-15T07:54:32.758Z,6916
2016-07-15T07:55:32.729Z,7572
2016-07-15T07:56:33.437Z,8240
2016-07-15T07:57:31.988Z,8676
2016-07-15T07:58:32.033Z,9608
2016-07-15T07:59:32.686Z,9748
2016-07-15T08:00:32.718Z,7344
2016-07-15T08:01:32.654Z,6564
2016-07-15T08:02:32.840Z,5568
2016-07-15T08:03:32.631Z,5608
2016-07-15T08:04:32.663Z,7896
2016-07-15T08:05:33.334Z,6304
2016-07-15T08:06:31.878Z,6576
2016-07-15T08:07:33.295Z,6428
2016-07-15T08:08:32.571Z,6600
2016-07-15T08:09:31.848Z,6692
2016-07-15T08:10:32.627Z,7640
2016-07-15T08:11:32.536Z,8016
2016-07-15T08:12:33.248Z,7880
2016-07-15T08:13:33.230Z,7276
2016-07-15T08:14:31.791Z,7256
2016-07-15T08:15:33.237Z,7228
2016-07-15T08:16:33.239Z,7120
2016-07-15T08:17:31.761Z,6976
2016-07-15T08:18:31.727Z,7004
2016-07-15T08:19:32.446Z,7080
2016-07-15T08:20:32.428Z,7300
2016-07-15T08:21:31.707Z,8680
2016-07-15T08:22:33.165Z,9388
2016-07-15T08:23:33.114Z,9832
2016-07-15T08:24:33.112Z,8560
2016-07-15T08:25:32.379Z,8628
2016-07-15T08:26:31.652Z,7752
2016-07-15T08:27:33.067Z,6740
2016-07-15T08:28:32.336Z,7640
2016-07-15T08:29:32.326Z,9564
2016-07-15T08:30:31.597Z,9356
2016-07-15T08:31:32.299Z,8392
2016-07-15T08:32:32.280Z,8916
2016-07-15T08:33:32.990Z,8244
2016-07-15T08:34:32.998Z,9776
2016-07-15T08:35:31.560Z,7968
2016-07-15T08:36:32.977Z,8732
2016-07-15T08:37:32.960Z,8432
2016-07-15T08:38:31.518Z,8392
2016-07-15T08:39:32.959Z,8844
2016-07-15T08:40:32.930Z,9144
2016-07-15T08:41:31.508Z,10000
2016-07-15T08:42:32.180Z,10980
2016-07-15T08:43:31.504Z,11932
2016-07-15T08:44:31.449Z,9344
2016-07-15T08:45:32.866Z,7968
2016-07-15T08:46:32.864Z,6832
2016-07-15T08:47:32.867Z,6712
2016-07-15T08:48:32.833Z,11548
2016-07-15T08:49:32.840Z,10976
2016-07-15T08:50:32.823Z,7684
2016-07-15T08:51:32.816Z,9808
2016-07-15T08:52:32.081Z,12816
2016-07-15T08:53:32.079Z,15904
2016-07-15T08:54:31.341Z,20480
2016-07-15T08:55:32.777Z,22144
2016-07-15T08:56:32.028Z,61920
2016-07-15T08:57:32.768Z,33792
2016-07-15T08:58:32.036Z,17952
2016-07-15T08:59:32.738Z,8464
2016-07-15T09:00:32.698Z,6136
2016-07-15T09:01:32.133Z,6988
2016-07-15T09:02:31.990Z,6956
2016-07-15T09:03:32.729Z,78464
2016-07-15T09:04:31.971Z,7828
2016-07-15T09:05:32.708Z,8504
2016-07-15T09:06:31.939Z,88128
2016-07-15T09:07:32.679Z,84224
2016-07-15T09:08:31.919Z,75904
2016-07-15T09:09:31.988Z,79744
2016-07-15T09:10:32.615Z,80576
2016-07-15T09:11:31.941Z,82848
2016-07-15T09:12:31.959Z,86720
2016-07-15T09:13:31.928Z,87520
2016-07-15T09:14:32.577Z,8656
2016-07-15T09:15:30.429Z,81888
2016-07-15T09:16:31.195Z,42816
2016-07-15T09:17:31.850Z,7708
2016-07-15T09:18:31.975Z,14024
2016-07-15T09:19:31.119Z,7132
2016-07-15T09:20:31.825Z,10400
2016-07-15T09:21:32.550Z,7236
2016-07-15T09:22:30.391Z,5668
2016-07-15T09:23:32.579Z,4568
2016-07-15T09:24:31.809Z,4072
2016-07-15T09:25:32.551Z,3996
2016-07-15T09:26:32.497Z,4352
2016-07-15T09:27:31.060Z,10204
2016-07-15T09:28:32.490Z,24960
2016-07-15T09:29:31.856Z,39904
2016-07-15T09:30:32.466Z,69728
2016-07-15T09:31:32.467Z,26784
2016-07-15T09:32:31.736Z,13996
2016-07-15T09:33:32.443Z,10316
2016-07-15T09:34:32.439Z,11432
2016-07-15T09:35:32.450Z,10256
2016-07-15T09:36:31.776Z,9120
2016-07-15T09:37:31.685Z,8820
2016-07-15T09:38:32.396Z,7928
2016-07-15T09:39:31.687Z,6676
2016-07-15T09:40:31.660Z,5688
2016-07-15T09:41:31.689Z,5280
2016-07-15T09:42:32.360Z,4840
2016-07-15T09:43:32.376Z,4504
2016-07-15T09:44:30.910Z,4460
2016-07-15T09:45:32.332Z,5072
2016-07-15T09:46:32.377Z,5484
2016-07-15T09:47:31.597Z,5336
2016-07-15T09:48:31.640Z,5064
2016-07-15T09:49:32.306Z,4912
2016-07-15T09:50:32.320Z,4568
2016-07-15T09:51:32.301Z,4792
2016-07-15T09:52:31.571Z,4840
2016-07-15T09:53:31.549Z,4832
2016-07-15T09:54:31.535Z,4944
2016-07-15T09:55:32.231Z,7628
2016-07-15T09:56:31.510Z,12780
2016-07-15T09:57:30.837Z,55296
2016-07-15T09:58:31.558Z,54496
2016-07-15T09:59:31.466Z,49184
2016-07-15T10:00:32.240Z,45376
2016-07-15T10:01:31.460Z,39104
2016-07-15T10:02:32.178Z,44416
2016-07-15T10:03:31.446Z,61280
2016-07-15T10:04:31.446Z,60448
2016-07-15T10:05:31.420Z,55680
2016-07-15T10:06:31.408Z,15052
2016-07-15T10:07:32.131Z,10592
2016-07-15T10:08:32.124Z,10428
2016-07-15T10:09:32.121Z,8040
2016-07-15T10:10:31.409Z,32032
2016-07-15T10:11:32.096Z,9056
2016-07-15T10:12:32.112Z,12984
2016-07-15T10:13:31.359Z,25632
2016-07-15T10:14:32.104Z,39808
2016-07-15T10:15:32.090Z,11044
2016-07-15T10:16:32.060Z,16672
2016-07-15T10:17:31.337Z,25312
2016-07-15T10:18:32.096Z,39424
2016-07-15T10:19:31.317Z,17408
2016-07-15T10:20:32.029Z,10168
2016-07-15T10:21:32.020Z,27584
2016-07-15T10:22:32.021Z,13656
2016-07-15T10:23:31.300Z,12156
2016-07-15T10:24:31.988Z,14916
2016-07-15T10:25:31.318Z,49216
2016-07-15T10:26:31.271Z,11408
2016-07-15T10:27:31.968Z,22752
2016-07-15T10:28:31.270Z,16192
2016-07-15T10:29:31.242Z,13724
2016-07-15T10:30:30.520Z,12640
2016-07-15T10:31:31.290Z,10668
2016-07-15T10:32:31.950Z,8732
2016-07-15T10:33:31.943Z,7136
2016-07-15T10:34:31.209Z,6660
2016-07-15T10:35:30.471Z,6200
2016-07-15T10:36:31.200Z,5412
2016-07-15T10:37:31.182Z,4916
2016-07-15T10:38:30.463Z,4684
2016-07-15T10:39:31.895Z,4892
2016-07-15T10:40:30.441Z,8772
2016-07-15T10:41:31.139Z,8352
2016-07-15T10:42:31.854Z,7488
2016-07-15T10:43:31.835Z,7076
2016-07-15T10:44:31.838Z,6288
2016-07-15T10:45:30.410Z,5172
2016-07-15T10:46:31.827Z,4660
2016-07-15T10:47:31.182Z,4324
2016-07-15T10:48:30.366Z,4352
2016-07-15T10:49:31.140Z,4720
2016-07-15T10:50:31.768Z,5324
2016-07-15T10:51:31.781Z,6132
2016-07-15T10:52:31.774Z,7892
2016-07-15T10:53:30.336Z,11960
2016-07-15T10:54:31.028Z,9324
2016-07-15T10:55:31.019Z,9100
2016-07-15T10:56:31.069Z,8640
2016-07-15T10:57:30.993Z,11980
2016-07-15T10:58:31.710Z,10740
2016-07-15T10:59:31.730Z,11060
2016-07-15T11:00:31.689Z,9736
2016-07-15T11:01:30.976Z,13816
2016-07-15T11:02:31.683Z,10708
2016-07-15T11:03:30.961Z,14656
2016-07-15T11:04:31.662Z,12004
2016-07-15T11:05:30.935Z,13956
2016-07-15T11:06:31.633Z,13428
2016-07-15T11:07:31.659Z,12468
2016-07-15T11:08:31.618Z,12280
2016-07-15T11:09:30.906Z,10372
2016-07-15T11:10:30.906Z,11876
2016-07-15T11:11:31.594Z,12176
2016-07-15T11:12:31.026Z,7992
2016-07-15T11:13:31.586Z,6328
2016-07-15T11:14:30.212Z,6348
2016-07-15T11:15:31.566Z,6180
2016-07-15T11:16:30.961Z,5976
2016-07-15T11:17:30.845Z,5484
2016-07-15T11:18:31.555Z,4784
2016-07-15T11:19:30.813Z,4620
2016-07-15T11:20:30.861Z,4804
2016-07-15T11:21:31.524Z,4844
2016-07-15T11:22:30.818Z,5008
2016-07-15T11:23:30.786Z,9136
2016-07-15T11:24:31.498Z,8340
2016-07-15T11:25:31.675Z,7928
2016-07-15T11:26:31.558Z,9692
2016-07-15T11:27:31.470Z,8156
2016-07-15T11:28:30.742Z,7784
2016-07-15T11:29:30.723Z,7028
2016-07-15T11:30:31.445Z,6396
2016-07-15T11:31:31.440Z,6072
2016-07-15T11:32:30.785Z,5716
2016-07-15T11:33:31.423Z,5316
2016-07-15T11:34:31.415Z,5120
2016-07-15T11:35:31.403Z,5116
2016-07-15T11:36:30.679Z,9208
2016-07-15T11:37:31.373Z,11224
2016-07-15T11:38:31.353Z,12104
2016-07-15T11:39:30.631Z,13020
2016-07-15T11:40:31.360Z,8480
2016-07-15T11:41:31.339Z,8520
2016-07-15T11:42:31.371Z,10308
2016-07-15T11:43:31.329Z,8924
2016-07-15T11:44:30.606Z,12592
2016-07-15T11:45:29.881Z,9292
2016-07-15T11:46:31.296Z,8600
2016-07-15T11:47:31.291Z,9632
2016-07-15T11:48:30.581Z,12028
2016-07-15T11:49:31.286Z,11944
2016-07-15T11:50:30.550Z,7240
2016-07-15T11:51:29.837Z,6644
2016-07-15T11:52:31.246Z,6056
2016-07-15T11:53:30.533Z,5432
2016-07-15T11:54:30.507Z,5016
2016-07-15T11:55:30.511Z,4956
2016-07-15T11:56:29.784Z,4916
2016-07-15T11:57:31.232Z,9580
2016-07-15T11:58:29.766Z,10384
2016-07-15T11:59:31.212Z,11096
2016-07-15T12:00:30.467Z,11416
2016-07-15T12:01:30.489Z,11916
2016-07-15T12:02:30.456Z,12032
2016-07-15T12:03:30.471Z,8004
2016-07-15T12:04:31.150Z,8464
2016-07-15T12:05:29.006Z,6852
2016-07-15T12:06:29.716Z,7052
2016-07-15T12:07:31.159Z,6972
2016-07-15T12:08:29.686Z,6772
2016-07-15T12:09:31.145Z,6504
2016-07-15T12:10:31.098Z,6168
2016-07-15T12:11:30.384Z,5680
2016-07-15T12:12:30.366Z,5096
2016-07-15T12:13:30.376Z,4592
2016-07-15T12:14:30.358Z,4052
2016-07-15T12:15:31.068Z,3828
2016-07-15T12:16:30.347Z,3840
2016-07-15T12:17:29.690Z,3908
2016-07-15T12:18:29.621Z,4016
2016-07-15T12:19:31.026Z,4164
2016-07-15T12:20:31.017Z,4368
2016-07-15T12:21:31.002Z,5600
2016-07-15T12:22:31.007Z,9956
2016-07-15T12:23:30.997Z,10516
2016-07-15T12:24:30.967Z,10724
2016-07-15T12:25:30.997Z,9420
2016-07-15T12:26:30.999Z,10384
2016-07-15T12:27:30.248Z,10436
2016-07-15T12:28:30.935Z,10252
2016-07-15T12:29:30.947Z,10428
2016-07-15T12:30:29.495Z,5804
2016-07-15T12:31:30.199Z,5596
2016-07-15T12:32:30.907Z,5496
2016-07-15T12:33:30.185Z,5796
2016-07-15T12:34:30.886Z,8820
2016-07-15T12:35:30.871Z,8048
2016-07-15T12:36:30.157Z,7184
2016-07-15T12:37:30.870Z,7888
2016-07-15T12:38:30.137Z,6956
2016-07-15T12:39:30.858Z,8008
2016-07-15T12:40:29.419Z,6924
2016-07-15T12:41:30.132Z,7696
2016-07-15T12:42:29.405Z,6820
2016-07-15T12:43:29.378Z,6732
2016-07-15T12:44:30.817Z,6452
2016-07-15T12:45:30.076Z,6072
2016-07-15T12:46:30.073Z,5756
2016-07-15T12:47:29.354Z,5448
2016-07-15T12:48:29.349Z,5404
2016-07-15T12:49:30.045Z,5464
2016-07-15T12:50:30.829Z,6696
2016-07-15T12:51:30.047Z,10344
2016-07-15T12:52:30.014Z,10308
2016-07-15T12:53:30.008Z,10156
2016-07-15T12:54:30.058Z,10060
2016-07-15T12:55:28.570Z,8312
2016-07-15T12:56:29.275Z,5812
2016-07-15T12:57:29.989Z,9280
2016-07-15T12:58:29.970Z,5380
2016-07-15T12:59:30.676Z,8328
2016-07-15T13:00:30.680Z,9424
2016-07-15T13:01:30.688Z,4924
2016-07-15T13:02:29.939Z,5584
2016-07-15T13:03:29.212Z,4816
2016-07-15T13:04:30.637Z,5140
2016-07-15T13:05:30.014Z,5128
2016-07-15T13:06:29.187Z,7288
2016-07-15T13:07:30.618Z,9216
2016-07-15T13:08:30.678Z,6840
2016-07-15T13:09:29.890Z,10708
2016-07-15T13:10:29.938Z,10812
2016-07-15T13:11:29.848Z,8208
2016-07-15T13:12:29.135Z,6476
2016-07-15T13:13:29.860Z,6072
2016-07-15T13:14:29.827Z,5656
2016-07-15T13:15:29.818Z,5360
2016-07-15T13:16:29.825Z,5180
2016-07-15T13:17:29.817Z,4824
2016-07-15T13:18:29.793Z,4420
2016-07-15T13:19:29.796Z,4148
2016-07-15T13:20:30.500Z,3612
2016-07-15T13:21:29.775Z,3068
2016-07-15T13:22:30.490Z,2616
2016-07-15T13:23:30.520Z,2356
2016-07-15T13:24:30.477Z,2136
2016-07-15T13:25:30.508Z,2016
2016-07-15T13:26:29.007Z,1976
2016-07-15T13:27:30.437Z,1884
2016-07-15T13:28:28.990Z,1816
2016-07-15T13:29:29.697Z,1880
2016-07-15T13:30:30.416Z,2052
2016-07-15T13:31:29.686Z,2112
2016-07-15T13:32:29.688Z,2112
2016-07-15T13:33:29.688Z,2148
2016-07-15T13:34:30.395Z,2068
2016-07-15T13:35:29.687Z,2000
2016-07-15T13:36:29.673Z,1972
2016-07-15T13:37:28.203Z,2004
2016-07-15T13:38:30.347Z,2112
2016-07-15T13:39:30.372Z,2284